Arcadia, Indiana
Current Conditions -  °F | °C
As of 6:55 AM on Sunday 23 Nov 2014 (Local Time) from KTYQ Reporting Station
Broken Clouds Broken Clouds  
Wind Chill:   Ceiling: 10000
Heat Index:   Visibility: 10mi
Dew Point:   Wind: 9mph
Humidity: 71%   Direction: 170°S
Pressure: 29.9"   Gusts: NA
Location:  40.18°N, 86.02°W
Report Text: KTYQ 231155Z AUTO 17008KT 10SM BKN100 09/04 A2990 RMK AO2 60005 70010 T00870038 10096 20080
Loading
Personal Weather Stations






























Interactive Weather Map New forecast layout! Learn more

10-Day Weather Forecast

Advertisements
Track Severe Weather on mobile